Walronda — VG3549 — position and weather

sailwx.info

Track history (hours):
 
Tides and Currents Weather Stations Pressure Air Temp Water Temp Dewpoint Dewpoint Depression Visibility Wind Speed Wind Dir Waves Ship Positions

Walronda

Last reported at 2017-Oct-03 21:12 UTC. Time now 2017-Dec-11 22:52 UTC.
Position N 49°18' W 123°08'.
Warning: this ship's position is months out of date.

Length 18 m; draft 2.6 m.

Type: Pleasure craft. MMSI: 316011505.

Date/timePositionNaut miles runAvg speedWind from/ knotsBaromVisibWave heightAir tempDewpointWater temp
2017-Oct-03 21:12N 49°18' W 123°08'0 0.7
2017-Oct-03 20:52N 49°18' W 123°07'1 3.3
2017-Oct-03 20:31N 49°19' W 123°08'4 8.0
2017-Oct-03 20:01N 49°18' W 123°14'4 7.7
2017-Oct-03 19:30N 49°16' W 123°20'4 7.6
2017-Oct-03 18:57N 49°14' W 123°25'5 7.5
2017-Oct-03 18:14N 49°12' W 123°33'2 8.0
2017-Oct-03 17:58N 49°11' W 123°35'4 7.8
2017-Oct-03 17:29N 49°09' W 123°40'1 0.0
2017-Oct-02 01:24N 49°09' W 123°42'0 0.0
2017-Oct-02 01:00N 49°09' W 123°42'0 0.0
2017-Oct-02 00:24N 49°09' W 123°42'0 0.0
2017-Oct-01 23:33N 49°09' W 123°42'0 0.0
2017-Oct-01 23:12N 49°09' W 123°42'0 0.0
2017-Oct-01 23:00N 49°09' W 123°42'0 0.0
2017-Oct-01 20:30N 49°09' W 123°42'0 0.0
2017-Oct-01 09:06N 49°09' W 123°42'0 0.0
2017-Oct-01 08:54N 49°09' W 123°42'0 0.0
2017-Oct-01 08:30N 49°09' W 123°42'0 0.0
2017-Oct-01 07:48N 49°09' W 123°42'0 0.0
2017-Oct-01 07:24N 49°09' W 123°42'0 0.0
2017-Oct-01 07:00N 49°09' W 123°42'0 0.0
2017-Oct-01 06:24N 49°09' W 123°42'0 0.0
2017-Oct-01 05:54N 49°09' W 123°42'0 0.0
2017-Oct-01 05:24N 49°09' W 123°42'0 0.0
2017-Oct-01 05:00N 49°09' W 123°42'0 0.0
2017-Oct-01 04:18N 49°09' W 123°42'0 0.0
2017-Oct-01 04:00N 49°09' W 123°42'0 0.0
2017-Oct-01 03:18N 49°09' W 123°42'0 0.0
2017-Oct-01 03:00N 49°09' W 123°42'  
2017-Sep-27 19:26N 48°41' W 123°30'12 0.2
2017-Sep-25 19:15N 48°49' W 123°18'2 7.2
2017-Sep-25 19:00N 48°50' W 123°21'4 7.2
2017-Sep-25 18:30N 48°53' W 123°24'1 1.0
2017-Sep-25 17:58N 48°54' W 123°23'0 0.0
2017-Sep-25 17:28N 48°54' W 123°23'0 0.0
2017-Sep-25 16:58N 48°54' W 123°23'0 0.0
2017-Sep-25 16:28N 48°54' W 123°23'0 0.0
2017-Sep-25 15:58N 48°54' W 123°23'0 0.0
2017-Sep-25 15:28N 48°54' W 123°23'0 0.0
2017-Sep-25 14:58N 48°54' W 123°23'0 0.0
2017-Sep-25 14:28N 48°54' W 123°23'0 0.0
2017-Sep-25 13:58N 48°54' W 123°23'0 0.0
2017-Sep-25 13:28N 48°54' W 123°23'0 0.0
2017-Sep-25 12:58N 48°54' W 123°23'0 0.0
2017-Sep-25 12:28N 48°54' W 123°23'0 0.0
2017-Sep-25 11:58N 48°54' W 123°23'0 0.0
2017-Sep-25 11:28N 48°54' W 123°23'0 0.0
2017-Sep-25 10:58N 48°54' W 123°23'0 0.0
2017-Sep-25 10:25N 48°54' W 123°23'0 0.0
2017-Sep-25 09:58N 48°54' W 123°23'0 0.0
2017-Sep-25 09:28N 48°54' W 123°23'0 0.0
2017-Sep-25 08:58N 48°54' W 123°23'0 0.0
2017-Sep-25 08:28N 48°54' W 123°23'0 0.0
2017-Sep-25 07:58N 48°54' W 123°23'0 0.0
2017-Sep-25 07:28N 48°54' W 123°23'0 0.0
2017-Sep-25 06:58N 48°54' W 123°23'0 0.0
2017-Sep-25 06:28N 48°54' W 123°23'0 0.0
2017-Sep-25 05:58N 48°54' W 123°23'0 0.0
2017-Sep-25 05:28N 48°54' W 123°23'0 0.0
2017-Sep-25 04:58N 48°54' W 123°23'0 0.0
2017-Sep-25 04:28N 48°54' W 123°23'0 0.0
2017-Sep-25 03:58N 48°54' W 123°23'0 0.0
2017-Sep-25 03:28N 48°54' W 123°23'0 0.0
2017-Sep-25 02:58N 48°54' W 123°23'0 0.0
2017-Sep-25 02:28N 48°54' W 123°23'0 0.0
2017-Sep-25 01:58N 48°54' W 123°23'0 0.0
2017-Sep-25 01:28N 48°54' W 123°23'0 0.0
2017-Sep-25 00:58N 48°54' W 123°23'0 0.0
2017-Sep-25 00:28N 48°54' W 123°23'0 0.0
2017-Sep-24 23:58N 48°54' W 123°23'0 0.0
2017-Sep-24 23:28N 48°54' W 123°23'0 0.0
2017-Sep-24 22:58N 48°54' W 123°23'0 0.0
2017-Sep-24 22:28N 48°54' W 123°23'0 0.0
2017-Sep-24 21:58N 48°54' W 123°23'0 0.0
2017-Sep-24 21:28N 48°54' W 123°23'0 0.0
2017-Sep-24 20:58N 48°54' W 123°23'0 0.0
2017-Sep-24 20:28N 48°54' W 123°23'0 0.0
2017-Sep-24 19:58N 48°54' W 123°23'0 0.0
2017-Sep-24 19:28N 48°54' W 123°23'0 0.0
2017-Sep-24 18:58N 48°54' W 123°23'0 0.0
2017-Sep-24 18:28N 48°54' W 123°23'0 0.0
2017-Sep-24 17:52N 48°54' W 123°23'0 0.0
2017-Sep-24 17:28N 48°54' W 123°23'0 0.0
2017-Sep-24 16:52N 48°54' W 123°23'0 0.0
2017-Sep-24 16:10N 48°54' W 123°23'0 0.0
2017-Sep-24 15:58N 48°54' W 123°23'0 0.0
2017-Sep-24 15:28N 48°54' W 123°23'0 0.0
2017-Sep-24 14:49N 48°54' W 123°23'0 0.0
2017-Sep-24 14:16N 48°54' W 123°23'0 0.0
2017-Sep-24 13:58N 48°54' W 123°23'0 0.0
2017-Sep-24 13:22N 48°54' W 123°23'0 0.0
2017-Sep-24 12:58N 48°54' W 123°23'0 0.0
2017-Sep-24 12:28N 48°54' W 123°23'0 0.0
2017-Sep-24 10:58N 48°54' W 123°23'0 0.0
2017-Sep-24 10:10N 48°54' W 123°23'0 0.0
2017-Sep-24 09:40N 48°54' W 123°23'0 0.0
2017-Sep-24 09:22N 48°54' W 123°23'0 0.0
2017-Sep-24 08:46N 48°54' W 123°23'0 0.0
2017-Sep-24 08:28N 48°54' W 123°23'0 0.0
2017-Sep-24 07:52N 48°54' W 123°23'0 0.0
2017-Sep-24 07:28N 48°54' W 123°23'0 0.0
2017-Sep-24 06:52N 48°54' W 123°23'0 0.0
2017-Sep-24 06:28N 48°54' W 123°23'0 0.0
2017-Sep-24 05:58N 48°54' W 123°23'0 0.0
2017-Sep-24 05:22N 48°54' W 123°23'0 0.0
2017-Sep-24 04:58N 48°54' W 123°23'0 0.0
2017-Sep-24 04:28N 48°54' W 123°23'0 0.0
2017-Sep-24 03:34N 48°54' W 123°23'0 0.0
2017-Sep-24 03:16N 48°54' W 123°23'0 0.0
2017-Sep-24 02:52N 48°54' W 123°23'0 0.0
2017-Sep-24 02:22N 48°54' W 123°23'0 0.0
2017-Sep-24 01:52N 48°54' W 123°23'0 0.0
2017-Sep-24 01:22N 48°54' W 123°23'0 0.0
2017-Sep-24 00:46N 48°54' W 123°23'0 0.0
2017-Sep-24 00:22N 48°54' W 123°23'0 0.0
2017-Sep-23 23:52N 48°54' W 123°23'0 0.0
2017-Sep-23 23:22N 48°54' W 123°23'0 0.0
2017-Sep-23 22:58N 48°54' W 123°23'0 0.0
2017-Sep-23 22:28N 48°54' W 123°23'0 0.0
2017-Sep-23 21:58N 48°54' W 123°23'0 0.0
2017-Sep-23 21:25N 48°54' W 123°23'  
Track history (hours):
 
Tides and Currents Weather Stations Pressure Air Temp Water Temp Dewpoint Dewpoint Depression Visibility Wind Speed Wind Dir Waves Ship Positions

Walronda

Last reported at 2017-Oct-03 21:12 UTC. Time now 2017-Dec-11 22:52 UTC.
Position N 49°18' W 123°08'.
Warning: this ship's position is months out of date.

Length 18 m; draft 2.6 m.

Type: Pleasure craft. MMSI: 316011505.

Date/timePositionNaut miles runAvg speedWind from/ knotsBaromVisibWave heightAir tempDewpointWater temp
2017-Oct-03 21:12N 49°18' W 123°08'0 0.7
2017-Oct-03 20:52N 49°18' W 123°07'1 3.3
2017-Oct-03 20:31N 49°19' W 123°08'4 8.0
2017-Oct-03 20:01N 49°18' W 123°14'4 7.7
2017-Oct-03 19:30N 49°16' W 123°20'4 7.6
2017-Oct-03 18:57N 49°14' W 123°25'5 7.5
2017-Oct-03 18:14N 49°12' W 123°33'2 8.0
2017-Oct-03 17:58N 49°11' W 123°35'4 7.8
2017-Oct-03 17:29N 49°09' W 123°40'1 0.0
2017-Oct-02 01:24N 49°09' W 123°42'0 0.0
2017-Oct-02 01:00N 49°09' W 123°42'0 0.0
2017-Oct-02 00:24N 49°09' W 123°42'0 0.0
2017-Oct-01 23:33N 49°09' W 123°42'0 0.0
2017-Oct-01 23:12N 49°09' W 123°42'0 0.0
2017-Oct-01 23:00N 49°09' W 123°42'0 0.0
2017-Oct-01 20:30N 49°09' W 123°42'0 0.0
2017-Oct-01 09:06N 49°09' W 123°42'0 0.0
2017-Oct-01 08:54N 49°09' W 123°42'0 0.0
2017-Oct-01 08:30N 49°09' W 123°42'0 0.0
2017-Oct-01 07:48N 49°09' W 123°42'0 0.0
2017-Oct-01 07:24N 49°09' W 123°42'0 0.0
2017-Oct-01 07:00N 49°09' W 123°42'0 0.0
2017-Oct-01 06:24N 49°09' W 123°42'0 0.0
2017-Oct-01 05:54N 49°09' W 123°42'0 0.0
2017-Oct-01 05:24N 49°09' W 123°42'0 0.0
2017-Oct-01 05:00N 49°09' W 123°42'0 0.0
2017-Oct-01 04:18N 49°09' W 123°42'0 0.0
2017-Oct-01 04:00N 49°09' W 123°42'0 0.0
2017-Oct-01 03:18N 49°09' W 123°42'0 0.0
2017-Oct-01 03:00N 49°09' W 123°42'  
2017-Sep-27 19:26N 48°41' W 123°30'12 0.2
2017-Sep-25 19:15N 48°49' W 123°18'2 7.2
2017-Sep-25 19:00N 48°50' W 123°21'4 7.2
2017-Sep-25 18:30N 48°53' W 123°24'1 1.0
2017-Sep-25 17:58N 48°54' W 123°23'0 0.0
2017-Sep-25 17:28N 48°54' W 123°23'0 0.0
2017-Sep-25 16:58N 48°54' W 123°23'0 0.0
2017-Sep-25 16:28N 48°54' W 123°23'0 0.0
2017-Sep-25 15:58N 48°54' W 123°23'0 0.0
2017-Sep-25 15:28N 48°54' W 123°23'0 0.0
2017-Sep-25 14:58N 48°54' W 123°23'0 0.0
2017-Sep-25 14:28N 48°54' W 123°23'0 0.0
2017-Sep-25 13:58N 48°54' W 123°23'0 0.0
2017-Sep-25 13:28N 48°54' W 123°23'0 0.0
2017-Sep-25 12:58N 48°54' W 123°23'0 0.0
2017-Sep-25 12:28N 48°54' W 123°23'0 0.0
2017-Sep-25 11:58N 48°54' W 123°23'0 0.0
2017-Sep-25 11:28N 48°54' W 123°23'0 0.0
2017-Sep-25 10:58N 48°54' W 123°23'0 0.0
2017-Sep-25 10:25N 48°54' W 123°23'0 0.0
2017-Sep-25 09:58N 48°54' W 123°23'0 0.0
2017-Sep-25 09:28N 48°54' W 123°23'0 0.0
2017-Sep-25 08:58N 48°54' W 123°23'0 0.0
2017-Sep-25 08:28N 48°54' W 123°23'0 0.0
2017-Sep-25 07:58N 48°54' W 123°23'0 0.0
2017-Sep-25 07:28N 48°54' W 123°23'0 0.0
2017-Sep-25 06:58N 48°54' W 123°23'0 0.0
2017-Sep-25 06:28N 48°54' W 123°23'0 0.0
2017-Sep-25 05:58N 48°54' W 123°23'0 0.0
2017-Sep-25 05:28N 48°54' W 123°23'0 0.0
2017-Sep-25 04:58N 48°54' W 123°23'0 0.0
2017-Sep-25 04:28N 48°54' W 123°23'0 0.0
2017-Sep-25 03:58N 48°54' W 123°23'0 0.0
2017-Sep-25 03:28N 48°54' W 123°23'0 0.0
2017-Sep-25 02:58N 48°54' W 123°23'0 0.0
2017-Sep-25 02:28N 48°54' W 123°23'0 0.0
2017-Sep-25 01:58N 48°54' W 123°23'0 0.0
2017-Sep-25 01:28N 48°54' W 123°23'0 0.0
2017-Sep-25 00:58N 48°54' W 123°23'0 0.0
2017-Sep-25 00:28N 48°54' W 123°23'0 0.0
2017-Sep-24 23:58N 48°54' W 123°23'0 0.0
2017-Sep-24 23:28N 48°54' W 123°23'0 0.0
2017-Sep-24 22:58N 48°54' W 123°23'0 0.0
2017-Sep-24 22:28N 48°54' W 123°23'0 0.0
2017-Sep-24 21:58N 48°54' W 123°23'0 0.0
2017-Sep-24 21:28N 48°54' W 123°23'0 0.0
2017-Sep-24 20:58N 48°54' W 123°23'0 0.0
2017-Sep-24 20:28N 48°54' W 123°23'0 0.0
2017-Sep-24 19:58N 48°54' W 123°23'0 0.0
2017-Sep-24 19:28N 48°54' W 123°23'0 0.0
2017-Sep-24 18:58N 48°54' W 123°23'0 0.0
2017-Sep-24 18:28N 48°54' W 123°23'0 0.0
2017-Sep-24 17:52N 48°54' W 123°23'0 0.0
2017-Sep-24 17:28N 48°54' W 123°23'0 0.0
2017-Sep-24 16:52N 48°54' W 123°23'0 0.0
2017-Sep-24 16:10N 48°54' W 123°23'0 0.0
2017-Sep-24 15:58N 48°54' W 123°23'0 0.0
2017-Sep-24 15:28N 48°54' W 123°23'0 0.0
2017-Sep-24 14:49N 48°54' W 123°23'0 0.0
2017-Sep-24 14:16N 48°54' W 123°23'0 0.0
2017-Sep-24 13:58N 48°54' W 123°23'0 0.0
2017-Sep-24 13:22N 48°54' W 123°23'0 0.0
2017-Sep-24 12:58N 48°54' W 123°23'0 0.0
2017-Sep-24 12:28N 48°54' W 123°23'0 0.0
2017-Sep-24 10:58N 48°54' W 123°23'0 0.0
2017-Sep-24 10:10N 48°54' W 123°23'0 0.0
2017-Sep-24 09:40N 48°54' W 123°23'0 0.0
2017-Sep-24 09:22N 48°54' W 123°23'0 0.0
2017-Sep-24 08:46N 48°54' W 123°23'0 0.0
2017-Sep-24 08:28N 48°54' W 123°23'0 0.0
2017-Sep-24 07:52N 48°54' W 123°23'0 0.0
2017-Sep-24 07:28N 48°54' W 123°23'0 0.0
2017-Sep-24 06:52N 48°54' W 123°23'0 0.0
2017-Sep-24 06:28N 48°54' W 123°23'0 0.0
2017-Sep-24 05:58N 48°54' W 123°23'0 0.0
2017-Sep-24 05:22N 48°54' W 123°23'0 0.0
2017-Sep-24 04:58N 48°54' W 123°23'0 0.0
2017-Sep-24 04:28N 48°54' W 123°23'0 0.0
2017-Sep-24 03:34N 48°54' W 123°23'0 0.0
2017-Sep-24 03:16N 48°54' W 123°23'0 0.0
2017-Sep-24 02:52N 48°54' W 123°23'0 0.0
2017-Sep-24 02:22N 48°54' W 123°23'0 0.0
2017-Sep-24 01:52N 48°54' W 123°23'0 0.0
2017-Sep-24 01:22N 48°54' W 123°23'0 0.0
2017-Sep-24 00:46N 48°54' W 123°23'0 0.0
2017-Sep-24 00:22N 48°54' W 123°23'0 0.0
2017-Sep-23 23:52N 48°54' W 123°23'0 0.0
2017-Sep-23 23:22N 48°54' W 123°23'0 0.0
2017-Sep-23 22:58N 48°54' W 123°23'0 0.0
2017-Sep-23 22:28N 48°54' W 123°23'0 0.0
2017-Sep-23 21:58N 48°54' W 123°23'0 0.0
2017-Sep-23 21:25N 48°54' W 123°23'  

Dump ship's entire track history